Hornepayne, Canada
Current Conditions -  °F | °C
As of 11:00 AM on Monday 24 Nov 2014 (Local Time) from CYSP Reporting Station
Light Snow Light Snow  
Wind Chill:   Ceiling: 700
Heat Index: 21°   Visibility: 2.5mi
Dew Point: 18°   Wind: 17mph
Humidity: 86%   Direction: 30°NNE
Pressure: 29.06"   Gusts: 36mph
Location:  49.22°N, 84.78°W
Report Text: CYSP 241600Z 03015G31KT 2 1/2SM -SN DRSN OVC007 M06/M08 A2906 RMK SN3SC5 /S02/ SLP855
Loading
Personal Weather Stations






























Interactive Weather Map New forecast layout! Learn more

10-Day Weather Forecast

Advertisements
Track Severe Weather on mobile